Terminal Aerodrome Forecast
Issued by NWS Cleveland, OH

Home | Current Version | Previous Version | Text Only | Print | Product List | Glossary Off
Versions: 1 2 3 4 5 6 7 8 9 10 11 12 13 14 15 16 17 18 19

936
FTUS41 KCLE 091040 AAB
TAFYNG
TAF AMD
KYNG 091040Z 0911/1006 25005KT P6SM SCT008 OVC015
     FM091900 26010KT P6SM -SHSN OVC020
     FM092300 26010KT P6SM BKN025=

USA.gov is the U.S. government's official web portal to all federal, state and local government web resources and services.